createdAt,value
2022-08-19T00:04:42.261Z,22.46
2022-08-19T00:09:44.774Z,22.36
2022-08-19T00:14:48.643Z,22.70
2022-08-19T00:19:51.129Z,21.73
2022-08-19T00:24:53.592Z,21.43
2022-08-19T00:29:59.814Z,22.19
2022-08-19T00:35:05.476Z,22.46
2022-08-19T00:40:09.301Z,22.77
2022-08-19T00:45:15.825Z,22.79
2022-08-19T00:50:21.566Z,22.58
2022-08-19T00:55:28.983Z,22.42
2022-08-19T01:00:33.608Z,22.63
2022-08-19T01:05:37.145Z,22.71
2022-08-19T01:10:46.647Z,22.84
2022-08-19T01:15:56.928Z,22.82
2022-08-19T01:21:04.456Z,22.77
2022-08-19T01:26:08.260Z,22.51
2022-08-19T01:31:26.414Z,22.32
2022-08-19T01:36:33.080Z,21.99
2022-08-19T01:41:38.674Z,21.96
2022-08-19T01:46:42.051Z,21.98
2022-08-19T01:51:44.619Z,21.92
2022-08-19T01:56:48.829Z,21.41
2022-08-19T02:01:51.405Z,21.84
2022-08-19T02:06:53.928Z,21.69
2022-08-19T02:11:57.989Z,21.96
2022-08-19T02:17:00.461Z,22.03
2022-08-19T02:22:03.115Z,21.65
2022-08-19T02:27:07.248Z,21.88
2022-08-19T02:32:09.950Z,21.58
2022-08-19T02:37:32.612Z,21.48
2022-08-19T02:42:39.217Z,21.65
2022-08-19T02:47:41.771Z,21.67
2022-08-19T02:52:44.251Z,21.59
2022-08-19T02:57:48.293Z,21.67
2022-08-19T03:02:50.755Z,21.77
2022-08-19T03:07:53.259Z,21.98
2022-08-19T03:12:57.119Z,21.69
2022-08-19T03:17:59.819Z,21.67
2022-08-19T03:23:02.892Z,22.00
2022-08-19T03:28:07.409Z,22.00
2022-08-19T03:33:11.302Z,22.12
2022-08-19T03:38:20.733Z,22.24
2022-08-19T03:43:24.597Z,22.46
2022-08-19T03:48:27.084Z,22.80
2022-08-19T03:53:31.683Z,22.55
2022-08-19T03:58:35.539Z,22.36
2022-08-19T04:03:37.978Z,22.53
2022-08-19T04:08:41.495Z,22.43
2022-08-19T04:13:45.662Z,22.28
2022-08-19T04:18:49.701Z,22.02
2022-08-19T04:23:53.496Z,22.42
2022-08-19T04:29:00.310Z,22.68
2022-08-19T04:34:04.901Z,22.80
2022-08-19T04:39:10.650Z,22.74
2022-08-19T04:44:15.169Z,22.87
2022-08-19T04:49:19.407Z,22.98
2022-08-19T04:54:37.157Z,23.08
2022-08-19T04:59:42.972Z,23.07
2022-08-19T05:04:45.434Z,23.32
2022-08-19T05:09:58.966Z,23.37
2022-08-19T05:15:06.914Z,23.43
2022-08-19T05:20:28.616Z,23.57
2022-08-19T05:25:31.260Z,23.35
2022-08-19T05:30:46.729Z,23.42
2022-08-19T05:35:53.555Z,23.17
2022-08-19T05:40:56.039Z,23.29
2022-08-19T05:46:00.285Z,23.23
2022-08-19T05:51:07.141Z,23.04
2022-08-19T05:56:11.538Z,23.16
2022-08-19T06:01:17.953Z,22.77
2022-08-19T06:06:21.407Z,23.16
2022-08-19T06:11:25.706Z,22.63
2022-08-19T06:16:32.542Z,22.41
2022-08-19T06:21:38.127Z,21.52
2022-08-19T06:31:56.193Z,20.93
2022-08-19T06:37:02.012Z,20.88
2022-08-19T06:42:10.327Z,20.76
2022-08-19T06:47:23.487Z,20.78
2022-08-19T06:52:27.840Z,20.61
2022-08-19T06:57:33.566Z,20.46
2022-08-19T07:02:38.517Z,20.60
2022-08-19T07:07:44.096Z,20.76
2022-08-19T07:12:51.264Z,20.90
2022-08-19T07:17:55.221Z,20.98
2022-08-19T07:22:58.241Z,20.93
2022-08-19T07:28:01.615Z,21.00
2022-08-19T07:33:05.647Z,21.11
2022-08-19T07:38:08.412Z,21.16
2022-08-19T07:43:14.231Z,21.16
2022-08-19T07:48:21.787Z,20.92
2022-08-19T07:53:24.259Z,21.03
2022-08-19T07:58:26.845Z,21.27
2022-08-19T08:03:45.129Z,21.11
2022-08-19T08:09:05.175Z,21.12
2022-08-19T08:14:29.510Z,21.37
2022-08-19T08:19:35.158Z,21.39
2022-08-19T08:24:37.989Z,22.01
2022-08-19T08:29:43.060Z,21.78
2022-08-19T08:34:47.386Z,21.97
2022-08-19T08:39:55.372Z,21.73
2022-08-19T08:45:01.596Z,21.62
2022-08-19T08:50:09.646Z,21.91
2022-08-19T08:55:16.282Z,22.21
2022-08-19T09:00:25.058Z,22.03
2022-08-19T09:05:42.116Z,22.01
2022-08-19T09:10:55.475Z,22.01
2022-08-19T09:16:02.503Z,22.26
2022-08-19T09:21:07.010Z,22.09
2022-08-19T09:26:11.716Z,22.05
2022-08-19T09:31:15.974Z,21.95
2022-08-19T09:36:34.844Z,21.90
2022-08-19T09:41:38.039Z,21.99
2022-08-19T09:46:40.557Z,22.05
2022-08-19T09:51:46.880Z,21.88
2022-08-19T09:56:53.970Z,22.11
2022-08-19T10:01:56.955Z,21.71
2022-08-19T10:07:07.914Z,21.89
2022-08-19T10:12:12.769Z,21.81
2022-08-19T10:17:23.123Z,22.02
2022-08-19T10:22:31.672Z,21.77
2022-08-19T10:27:34.224Z,21.52
2022-08-19T10:32:38.378Z,21.62
2022-08-19T10:37:57.667Z,21.10
2022-08-19T10:43:04.787Z,21.36
2022-08-19T10:48:07.316Z,21.81
2022-08-19T10:53:20.974Z,21.61
2022-08-19T10:58:27.264Z,21.46
2022-08-19T11:03:30.787Z,21.04
2022-08-19T11:08:35.789Z,20.63
2022-08-19T11:13:41.768Z,20.46
2022-08-19T11:18:48.125Z,20.92
2022-08-19T11:23:54.914Z,20.96
2022-08-19T11:28:58.689Z,20.93
2022-08-19T11:34:06.433Z,20.54
2022-08-19T11:39:12.532Z,20.14
2022-08-19T11:44:16.177Z,20.21
2022-08-19T11:49:22.043Z,20.39
2022-08-19T11:54:26.383Z,20.99
2022-08-19T11:59:30.302Z,21.09
2022-08-19T12:04:32.825Z,20.45
2022-08-19T12:09:37.131Z,19.76
2022-08-19T12:14:45.677Z,20.18
2022-08-19T12:19:48.189Z,20.89
2022-08-19T12:24:54.276Z,21.19
2022-08-19T12:29:57.014Z,21.67
2022-08-19T12:34:59.538Z,21.95
2022-08-19T12:40:04.398Z,21.72
2022-08-19T12:45:07.780Z,21.72
2022-08-19T12:50:14.093Z,21.35
2022-08-19T12:55:19.541Z,22.41
2022-08-19T13:00:23.870Z,23.18
2022-08-19T13:05:31.165Z,24.17
2022-08-19T13:10:40.073Z,25.11
2022-08-19T13:15:49.265Z,24.54
2022-08-19T13:20:52.738Z,26.00
2022-08-19T13:26:00.974Z,25.59
2022-08-19T13:31:21.254Z,24.90
2022-08-19T13:36:23.765Z,25.27
2022-08-19T13:41:27.941Z,25.35
2022-08-19T13:46:31.542Z,25.05
2022-08-19T13:51:34.221Z,24.69
2022-08-19T13:56:42.768Z,24.67
2022-08-19T14:01:45.264Z,24.41
2022-08-19T14:06:49.640Z,24.04
2022-08-19T14:11:53.475Z,23.73
2022-08-19T14:16:55.903Z,23.47
2022-08-19T14:21:59.059Z,23.44
2022-08-19T14:27:04.248Z,22.86
2022-08-19T14:32:08.089Z,22.77
2022-08-19T14:37:15.356Z,22.08
2022-08-19T14:42:19.182Z,22.75
2022-08-19T14:47:21.677Z,23.32
2022-08-19T14:52:26.061Z,23.22
2022-08-19T14:57:29.879Z,22.99
2022-08-19T15:02:34.039Z,23.04
2022-08-19T15:07:37.677Z,23.19
2022-08-19T15:12:43.626Z,23.77
2022-08-19T15:17:47.375Z,23.73
2022-08-19T15:22:50.010Z,23.56
2022-08-19T15:27:54.138Z,23.29
2022-08-19T15:32:58.467Z,23.27
2022-08-19T15:38:01.002Z,23.61
2022-08-19T15:43:04.827Z,23.54
2022-08-19T15:48:07.237Z,23.31
2022-08-19T15:53:11.747Z,23.62
2022-08-19T15:58:33.670Z,23.96
2022-08-19T16:03:53.958Z,23.99
2022-08-19T16:08:58.654Z,23.84
2022-08-19T16:14:03.673Z,23.54
2022-08-19T16:19:11.861Z,23.46
2022-08-19T16:24:16.810Z,23.36
2022-08-19T16:29:33.808Z,23.28
2022-08-19T16:34:42.402Z,23.65
2022-08-19T16:39:45.729Z,23.90
2022-08-19T16:44:49.778Z,23.85
2022-08-19T16:49:55.212Z,23.56
2022-08-19T16:54:58.131Z,23.50
2022-08-19T17:00:05.122Z,23.88
2022-08-19T17:05:09.405Z,23.79
2022-08-19T17:10:11.982Z,23.84
2022-08-19T17:15:15.797Z,23.25
2022-08-19T17:20:18.498Z,23.38
2022-08-19T17:25:21.023Z,23.33
2022-08-19T17:30:26.167Z,23.51
2022-08-19T17:35:28.724Z,23.45
2022-08-19T17:40:31.256Z,23.25
2022-08-19T17:45:36.419Z,22.68
2022-08-19T17:50:40.394Z,22.58
2022-08-19T17:55:42.903Z,22.57
2022-08-19T18:00:54.441Z,22.70
2022-08-19T18:05:58.605Z,22.84
2022-08-19T18:11:01.823Z,22.42
2022-08-19T18:16:06.951Z,22.65
2022-08-19T18:21:10.351Z,22.93
2022-08-19T18:26:12.974Z,22.69
2022-08-19T18:31:17.143Z,22.81
2022-08-19T18:36:37.381Z,22.96
2022-08-19T18:42:00.679Z,22.69
2022-08-19T18:47:22.430Z,21.82
2022-08-19T18:52:27.079Z,22.26
2022-08-19T18:57:29.580Z,22.10
2022-08-19T19:02:38.886Z,22.45
2022-08-19T19:07:41.737Z,21.82
2022-08-19T19:12:45.450Z,21.61
2022-08-19T19:17:50.059Z,22.06
2022-08-19T19:22:52.516Z,22.49
2022-08-19T19:27:58.556Z,22.79
2022-08-19T19:33:03.181Z,22.35
2022-08-19T19:38:08.445Z,20.93
2022-08-19T19:43:11.019Z,21.87
2022-08-19T19:48:16.758Z,22.16
2022-08-19T19:53:19.241Z,22.14
2022-08-19T19:58:22.755Z,22.10
2022-08-19T20:03:32.918Z,22.18
2022-08-19T20:08:53.013Z,22.36
2022-08-19T20:13:55.679Z,20.64
2022-08-19T20:19:01.218Z,21.46
2022-08-19T20:24:09.145Z,21.98
2022-08-19T20:29:38.062Z,21.90
2022-08-19T20:34:38.079Z,21.55
2022-08-19T20:39:40.797Z,21.94
2022-08-19T20:44:43.335Z,21.86
2022-08-19T20:49:47.272Z,22.09
2022-08-19T20:54:49.683Z,22.15
2022-08-19T20:59:52.226Z,22.14
2022-08-19T21:04:59.021Z,21.78
2022-08-19T21:10:02.872Z,21.54
2022-08-19T21:15:09.849Z,21.68
2022-08-19T21:20:13.766Z,21.64
2022-08-19T21:25:17.028Z,21.97
2022-08-19T21:30:19.611Z,22.00
2022-08-19T21:35:24.191Z,21.48
2022-08-19T21:40:27.201Z,21.25
2022-08-19T21:45:30.142Z,21.23
2022-08-19T21:50:34.027Z,21.50
2022-08-19T21:55:36.521Z,21.42
2022-08-19T22:00:40.242Z,20.33
2022-08-19T22:05:44.434Z,20.27
2022-08-19T22:10:46.940Z,19.83
2022-08-19T22:15:51.874Z,20.66
2022-08-19T22:20:56.663Z,20.99
2022-08-19T22:25:59.381Z,21.36
2022-08-19T22:31:02.430Z,21.33
2022-08-19T22:36:08.498Z,21.44
2022-08-19T22:41:11.535Z,20.50
2022-08-19T22:46:17.350Z,20.04
2022-08-19T22:51:39.447Z,20.84
2022-08-19T22:56:43.352Z,20.82
2022-08-19T23:01:46.271Z,20.31
2022-08-19T23:06:52.857Z,20.10
2022-08-19T23:11:55.661Z,20.52
2022-08-19T23:16:59.185Z,20.78
2022-08-19T23:22:05.092Z,20.62
2022-08-19T23:27:30.280Z,20.31
2022-08-19T23:32:36.038Z,20.18
2022-08-19T23:37:39.813Z,20.29
2022-08-19T23:42:44.351Z,20.99
2022-08-19T23:47:47.485Z,19.76
2022-08-19T23:52:54.372Z,20.67
2022-08-19T23:57:57.495Z,19.92
